sensor_id;sensor_type;location;lat;lon;timestamp;temperature;humidity
19906;DHT22;10115;50.906;4.438;2022-08-20T00:00:46;18.40;99.90
19906;DHT22;10115;50.906;4.438;2022-08-20T00:03:20;18.40;99.90
19906;DHT22;10115;50.906;4.438;2022-08-20T00:05:54;18.40;99.90
19906;DHT22;10115;50.906;4.438;2022-08-20T00:08:21;18.40;99.90
19906;DHT22;10115;50.906;4.438;2022-08-20T00:10:49;18.30;99.90
19906;DHT22;10115;50.906;4.438;2022-08-20T00:13:19;18.30;99.90
19906;DHT22;10115;50.906;4.438;2022-08-20T00:15:45;18.20;99.90
19906;DHT22;10115;50.906;4.438;2022-08-20T00:18:11;18.20;99.90
19906;DHT22;10115;50.906;4.438;2022-08-20T00:20:40;18.10;99.90
19906;DHT22;10115;50.906;4.438;2022-08-20T00:23:07;18.10;99.90
19906;DHT22;10115;50.906;4.438;2022-08-20T00:25:33;18.10;99.90
19906;DHT22;10115;50.906;4.438;2022-08-20T00:27:59;18.10;99.90
19906;DHT22;10115;50.906;4.438;2022-08-20T00:30:25;18.10;99.90
19906;DHT22;10115;50.906;4.438;2022-08-20T00:33:01;18.00;99.90
19906;DHT22;10115;50.906;4.438;2022-08-20T00:35:30;18.00;99.90
19906;DHT22;10115;50.906;4.438;2022-08-20T00:37:57;18.00;99.90
19906;DHT22;10115;50.906;4.438;2022-08-20T00:40:27;17.90;99.90
19906;DHT22;10115;50.906;4.438;2022-08-20T00:42:58;17.90;99.90
19906;DHT22;10115;50.906;4.438;2022-08-20T00:45:28;17.90;99.90
19906;DHT22;10115;50.906;4.438;2022-08-20T00:47:54;17.90;99.90
19906;DHT22;10115;50.906;4.438;2022-08-20T00:50:23;17.90;99.90
19906;DHT22;10115;50.906;4.438;2022-08-20T00:52:51;17.90;99.90
19906;DHT22;10115;50.906;4.438;2022-08-20T00:55:19;17.90;99.90
19906;DHT22;10115;50.906;4.438;2022-08-20T00:57:52;17.90;99.90
19906;DHT22;10115;50.906;4.438;2022-08-20T01:00:35;17.80;99.90
19906;DHT22;10115;50.906;4.438;2022-08-20T01:03:03;17.80;99.90
19906;DHT22;10115;50.906;4.438;2022-08-20T01:05:29;17.80;99.90
19906;DHT22;10115;50.906;4.438;2022-08-20T01:07:55;17.80;99.90
19906;DHT22;10115;50.906;4.438;2022-08-20T01:10:43;17.70;99.90
19906;DHT22;10115;50.906;4.438;2022-08-20T01:13:12;17.60;99.90
19906;DHT22;10115;50.906;4.438;2022-08-20T01:15:41;17.50;99.90
19906;DHT22;10115;50.906;4.438;2022-08-20T01:18:17;17.50;99.90
19906;DHT22;10115;50.906;4.438;2022-08-20T01:20:48;17.50;99.90
19906;DHT22;10115;50.906;4.438;2022-08-20T01:31:11;17.50;99.90
19906;DHT22;10115;50.906;4.438;2022-08-20T01:33:37;17.50;99.90
19906;DHT22;10115;50.906;4.438;2022-08-20T01:36:04;17.50;99.90
19906;DHT22;10115;50.906;4.438;2022-08-20T01:38:30;17.50;99.90
19906;DHT22;10115;50.906;4.438;2022-08-20T01:41:18;17.40;99.90
19906;DHT22;10115;50.906;4.438;2022-08-20T01:43:52;17.40;99.90
19906;DHT22;10115;50.906;4.438;2022-08-20T01:46:39;17.30;99.90
19906;DHT22;10115;50.906;4.438;2022-08-20T01:49:29;17.30;99.90
19906;DHT22;10115;50.906;4.438;2022-08-20T01:51:57;17.30;99.90
19906;DHT22;10115;50.906;4.438;2022-08-20T01:54:24;17.20;99.90
19906;DHT22;10115;50.906;4.438;2022-08-20T01:57:01;17.10;99.90
19906;DHT22;10115;50.906;4.438;2022-08-20T01:59:28;17.10;99.90
19906;DHT22;10115;50.906;4.438;2022-08-20T02:01:55;17.00;99.90
19906;DHT22;10115;50.906;4.438;2022-08-20T02:04:21;16.90;99.90
19906;DHT22;10115;50.906;4.438;2022-08-20T02:06:51;16.90;99.90
19906;DHT22;10115;50.906;4.438;2022-08-20T02:09:17;16.90;99.90
19906;DHT22;10115;50.906;4.438;2022-08-20T02:11:43;16.80;99.90
19906;DHT22;10115;50.906;4.438;2022-08-20T02:14:11;16.80;99.90
19906;DHT22;10115;50.906;4.438;2022-08-20T02:16:40;16.80;99.90
19906;DHT22;10115;50.906;4.438;2022-08-20T02:19:29;16.70;99.90
19906;DHT22;10115;50.906;4.438;2022-08-20T02:22:00;16.70;99.90
19906;DHT22;10115;50.906;4.438;2022-08-20T02:24:27;16.60;99.90
19906;DHT22;10115;50.906;4.438;2022-08-20T02:26:53;16.60;99.90
19906;DHT22;10115;50.906;4.438;2022-08-20T02:29:19;16.60;99.90
19906;DHT22;10115;50.906;4.438;2022-08-20T02:31:46;16.50;99.90
19906;DHT22;10115;50.906;4.438;2022-08-20T02:34:13;16.50;99.90
19906;DHT22;10115;50.906;4.438;2022-08-20T02:36:40;16.50;99.90
19906;DHT22;10115;50.906;4.438;2022-08-20T02:39:10;16.50;99.90
19906;DHT22;10115;50.906;4.438;2022-08-20T02:41:37;16.40;99.90
19906;DHT22;10115;50.906;4.438;2022-08-20T02:44:04;16.40;99.90
19906;DHT22;10115;50.906;4.438;2022-08-20T02:46:31;16.30;99.90
19906;DHT22;10115;50.906;4.438;2022-08-20T02:48:57;16.30;99.90
19906;DHT22;10115;50.906;4.438;2022-08-20T02:51:23;16.30;99.90
19906;DHT22;10115;50.906;4.438;2022-08-20T02:53:49;16.30;99.90
19906;DHT22;10115;50.906;4.438;2022-08-20T02:56:16;16.20;99.90
19906;DHT22;10115;50.906;4.438;2022-08-20T02:58:42;16.20;99.90
19906;DHT22;10115;50.906;4.438;2022-08-20T03:01:12;16.20;99.90
19906;DHT22;10115;50.906;4.438;2022-08-20T03:03:40;16.30;99.90
19906;DHT22;10115;50.906;4.438;2022-08-20T03:06:07;16.30;99.90
19906;DHT22;10115;50.906;4.438;2022-08-20T03:08:35;16.30;99.90
19906;DHT22;10115;50.906;4.438;2022-08-20T03:11:01;16.30;99.90
19906;DHT22;10115;50.906;4.438;2022-08-20T03:13:27;16.30;99.90
19906;DHT22;10115;50.906;4.438;2022-08-20T03:15:55;16.20;99.90
19906;DHT22;10115;50.906;4.438;2022-08-20T03:18:23;16.20;99.90
19906;DHT22;10115;50.906;4.438;2022-08-20T03:20:49;16.20;99.90
19906;DHT22;10115;50.906;4.438;2022-08-20T03:23:16;16.20;99.90
19906;DHT22;10115;50.906;4.438;2022-08-20T03:25:42;16.20;99.90
19906;DHT22;10115;50.906;4.438;2022-08-20T03:28:08;16.10;99.90
19906;DHT22;10115;50.906;4.438;2022-08-20T03:30:35;16.10;99.90
19906;DHT22;10115;50.906;4.438;2022-08-20T03:33:01;16.00;99.90
19906;DHT22;10115;50.906;4.438;2022-08-20T03:35:30;16.00;99.90
19906;DHT22;10115;50.906;4.438;2022-08-20T03:37:56;16.00;99.90
19906;DHT22;10115;50.906;4.438;2022-08-20T03:40:27;16.00;99.90
19906;DHT22;10115;50.906;4.438;2022-08-20T03:42:53;16.00;99.90
19906;DHT22;10115;50.906;4.438;2022-08-20T03:45:21;16.00;99.90
19906;DHT22;10115;50.906;4.438;2022-08-20T03:47:48;16.00;99.90
19906;DHT22;10115;50.906;4.438;2022-08-20T03:50:14;16.00;99.90
19906;DHT22;10115;50.906;4.438;2022-08-20T03:52:40;16.00;99.90
19906;DHT22;10115;50.906;4.438;2022-08-20T03:55:07;16.10;99.90
19906;DHT22;10115;50.906;4.438;2022-08-20T03:57:34;16.00;99.90
19906;DHT22;10115;50.906;4.438;2022-08-20T04:00:00;16.00;99.90
19906;DHT22;10115;50.906;4.438;2022-08-20T04:02:26;15.90;99.90
19906;DHT22;10115;50.906;4.438;2022-08-20T04:04:53;15.80;99.90
19906;DHT22;10115;50.906;4.438;2022-08-20T04:07:23;15.80;99.90
19906;DHT22;10115;50.906;4.438;2022-08-20T04:09:55;15.80;99.90
19906;DHT22;10115;50.906;4.438;2022-08-20T04:12:21;15.80;99.90
19906;DHT22;10115;50.906;4.438;2022-08-20T04:14:49;15.80;99.90
19906;DHT22;10115;50.906;4.438;2022-08-20T04:17:16;15.80;99.90
19906;DHT22;10115;50.906;4.438;2022-08-20T04:19:42;15.70;99.90
19906;DHT22;10115;50.906;4.438;2022-08-20T04:22:09;15.70;99.90
19906;DHT22;10115;50.906;4.438;2022-08-20T04:24:38;15.70;99.90
19906;DHT22;10115;50.906;4.438;2022-08-20T04:27:04;15.70;99.90
19906;DHT22;10115;50.906;4.438;2022-08-20T04:29:31;15.70;99.90
19906;DHT22;10115;50.906;4.438;2022-08-20T04:31:58;15.70;99.90
19906;DHT22;10115;50.906;4.438;2022-08-20T04:34:25;15.70;99.90
19906;DHT22;10115;50.906;4.438;2022-08-20T04:36:50;15.70;99.90
19906;DHT22;10115;50.906;4.438;2022-08-20T04:39:16;15.60;99.90
19906;DHT22;10115;50.906;4.438;2022-08-20T04:41:43;15.60;99.90
19906;DHT22;10115;50.906;4.438;2022-08-20T04:44:09;15.60;99.90
19906;DHT22;10115;50.906;4.438;2022-08-20T04:46:37;15.60;99.90
19906;DHT22;10115;50.906;4.438;2022-08-20T04:49:04;15.50;99.90
19906;DHT22;10115;50.906;4.438;2022-08-20T04:51:30;15.50;99.90
19906;DHT22;10115;50.906;4.438;2022-08-20T04:53:56;15.50;99.90
19906;DHT22;10115;50.906;4.438;2022-08-20T04:56:25;15.40;99.90
19906;DHT22;10115;50.906;4.438;2022-08-20T04:58:53;15.40;99.90
19906;DHT22;10115;50.906;4.438;2022-08-20T05:01:19;15.40;99.90
19906;DHT22;10115;50.906;4.438;2022-08-20T05:03:46;15.40;99.90
19906;DHT22;10115;50.906;4.438;2022-08-20T05:06:12;15.40;99.90
19906;DHT22;10115;50.906;4.438;2022-08-20T05:08:39;15.40;99.90
19906;DHT22;10115;50.906;4.438;2022-08-20T05:11:05;15.40;99.90
19906;DHT22;10115;50.906;4.438;2022-08-20T05:13:34;15.40;99.90
19906;DHT22;10115;50.906;4.438;2022-08-20T05:15:59;15.40;99.90
19906;DHT22;10115;50.906;4.438;2022-08-20T05:18:26;15.40;99.90
19906;DHT22;10115;50.906;4.438;2022-08-20T05:20:57;15.40;99.90
19906;DHT22;10115;50.906;4.438;2022-08-20T05:23:27;15.40;99.90
19906;DHT22;10115;50.906;4.438;2022-08-20T05:25:52;15.40;99.90
19906;DHT22;10115;50.906;4.438;2022-08-20T05:28:26;15.40;99.90
19906;DHT22;10115;50.906;4.438;2022-08-20T05:30:52;15.40;99.90
19906;DHT22;10115;50.906;4.438;2022-08-20T05:33:20;15.50;99.90
19906;DHT22;10115;50.906;4.438;2022-08-20T05:35:47;15.50;99.90
19906;DHT22;10115;50.906;4.438;2022-08-20T05:38:16;15.50;99.90
19906;DHT22;10115;50.906;4.438;2022-08-20T05:40:43;15.50;99.90
19906;DHT22;10115;50.906;4.438;2022-08-20T05:43:09;15.50;99.90
19906;DHT22;10115;50.906;4.438;2022-08-20T05:45:37;15.50;99.90
19906;DHT22;10115;50.906;4.438;2022-08-20T05:48:13;15.60;99.90
19906;DHT22;10115;50.906;4.438;2022-08-20T05:50:41;15.60;99.90
19906;DHT22;10115;50.906;4.438;2022-08-20T05:53:07;15.60;99.90
19906;DHT22;10115;50.906;4.438;2022-08-20T05:55:33;15.60;99.90
19906;DHT22;10115;50.906;4.438;2022-08-20T05:58:06;15.60;99.90
19906;DHT22;10115;50.906;4.438;2022-08-20T06:00:33;15.70;99.90
19906;DHT22;10115;50.906;4.438;2022-08-20T06:02:59;15.80;99.90
19906;DHT22;10115;50.906;4.438;2022-08-20T06:05:44;15.80;99.90
19906;DHT22;10115;50.906;4.438;2022-08-20T06:08:11;15.70;99.90
19906;DHT22;10115;50.906;4.438;2022-08-20T06:10:39;15.80;99.90
19906;DHT22;10115;50.906;4.438;2022-08-20T06:13:05;15.80;99.90
19906;DHT22;10115;50.906;4.438;2022-08-20T06:15:32;15.80;99.90
19906;DHT22;10115;50.906;4.438;2022-08-20T06:17:58;15.90;99.90
19906;DHT22;10115;50.906;4.438;2022-08-20T06:20:24;16.10;99.90
19906;DHT22;10115;50.906;4.438;2022-08-20T06:22:53;16.30;99.90
19906;DHT22;10115;50.906;4.438;2022-08-20T06:25:19;16.30;99.90
19906;DHT22;10115;50.906;4.438;2022-08-20T06:27:45;16.50;99.90
19906;DHT22;10115;50.906;4.438;2022-08-20T06:30:13;16.50;99.90
19906;DHT22;10115;50.906;4.438;2022-08-20T06:32:39;16.70;99.90
19906;DHT22;10115;50.906;4.438;2022-08-20T06:35:07;16.70;99.90
19906;DHT22;10115;50.906;4.438;2022-08-20T06:37:35;16.70;99.90
19906;DHT22;10115;50.906;4.438;2022-08-20T06:42:31;16.70;99.90
19906;DHT22;10115;50.906;4.438;2022-08-20T06:44:56;16.80;99.90
19906;DHT22;10115;50.906;4.438;2022-08-20T06:47:24;16.80;99.90
19906;DHT22;10115;50.906;4.438;2022-08-20T06:49:50;16.80;99.90
19906;DHT22;10115;50.906;4.438;2022-08-20T06:52:16;17.00;99.90
19906;DHT22;10115;50.906;4.438;2022-08-20T06:54:43;17.10;99.90
19906;DHT22;10115;50.906;4.438;2022-08-20T06:57:09;17.10;99.90
19906;DHT22;10115;50.906;4.438;2022-08-20T06:59:35;17.30;99.90
19906;DHT22;10115;50.906;4.438;2022-08-20T07:02:01;17.40;99.90
19906;DHT22;10115;50.906;4.438;2022-08-20T07:04:27;17.40;99.90
19906;DHT22;10115;50.906;4.438;2022-08-20T07:06:54;17.40;99.90
19906;DHT22;10115;50.906;4.438;2022-08-20T07:09:24;17.30;99.90
19906;DHT22;10115;50.906;4.438;2022-08-20T07:11:50;17.20;99.90
19906;DHT22;10115;50.906;4.438;2022-08-20T07:14:17;17.30;99.90
19906;DHT22;10115;50.906;4.438;2022-08-20T07:16:43;17.40;99.90
19906;DHT22;10115;50.906;4.438;2022-08-20T07:19:09;17.40;99.90
19906;DHT22;10115;50.906;4.438;2022-08-20T07:21:35;17.40;99.90
19906;DHT22;10115;50.906;4.438;2022-08-20T07:24:01;17.40;99.90
19906;DHT22;10115;50.906;4.438;2022-08-20T07:26:27;17.50;99.90
19906;DHT22;10115;50.906;4.438;2022-08-20T07:28:53;17.60;99.90
19906;DHT22;10115;50.906;4.438;2022-08-20T07:31:19;17.60;99.90
19906;DHT22;10115;50.906;4.438;2022-08-20T07:34:04;17.80;99.90
19906;DHT22;10115;50.906;4.438;2022-08-20T07:36:30;18.00;99.90
19906;DHT22;10115;50.906;4.438;2022-08-20T07:38:56;17.90;99.90
19906;DHT22;10115;50.906;4.438;2022-08-20T07:41:21;17.90;99.90
19906;DHT22;10115;50.906;4.438;2022-08-20T07:43:47;18.10;99.90
19906;DHT22;10115;50.906;4.438;2022-08-20T07:46:16;18.20;99.90
19906;DHT22;10115;50.906;4.438;2022-08-20T07:48:43;18.20;99.90
19906;DHT22;10115;50.906;4.438;2022-08-20T07:51:15;18.40;99.90
19906;DHT22;10115;50.906;4.438;2022-08-20T07:53:43;18.50;99.90
19906;DHT22;10115;50.906;4.438;2022-08-20T07:56:11;18.90;99.90
19906;DHT22;10115;50.906;4.438;2022-08-20T07:58:44;19.00;99.90
19906;DHT22;10115;50.906;4.438;2022-08-20T08:01:18;19.00;99.90
19906;DHT22;10115;50.906;4.438;2022-08-20T08:03:44;19.20;99.90
19906;DHT22;10115;50.906;4.438;2022-08-20T08:06:10;19.30;99.90
19906;DHT22;10115;50.906;4.438;2022-08-20T08:08:37;19.40;99.90
19906;DHT22;10115;50.906;4.438;2022-08-20T08:11:04;19.40;99.90
19906;DHT22;10115;50.906;4.438;2022-08-20T08:13:34;19.50;99.90
19906;DHT22;10115;50.906;4.438;2022-08-20T08:16:02;19.60;99.90
19906;DHT22;10115;50.906;4.438;2022-08-20T08:18:42;19.80;99.90
19906;DHT22;10115;50.906;4.438;2022-08-20T08:21:09;19.90;99.90
19906;DHT22;10115;50.906;4.438;2022-08-20T08:23:38;20.20;99.90
19906;DHT22;10115;50.906;4.438;2022-08-20T08:26:05;20.30;99.90
19906;DHT22;10115;50.906;4.438;2022-08-20T08:28:31;20.10;99.90
19906;DHT22;10115;50.906;4.438;2022-08-20T08:30:57;20.50;99.90
19906;DHT22;10115;50.906;4.438;2022-08-20T08:33:25;20.40;99.90
19906;DHT22;10115;50.906;4.438;2022-08-20T08:36:03;20.50;99.90
19906;DHT22;10115;50.906;4.438;2022-08-20T08:38:33;20.80;99.90
19906;DHT22;10115;50.906;4.438;2022-08-20T08:43:48;20.60;99.90
19906;DHT22;10115;50.906;4.438;2022-08-20T08:46:21;20.70;99.90
19906;DHT22;10115;50.906;4.438;2022-08-20T08:48:50;20.90;99.90
19906;DHT22;10115;50.906;4.438;2022-08-20T08:51:27;21.00;99.90
19906;DHT22;10115;50.906;4.438;2022-08-20T08:53:55;21.20;99.90
19906;DHT22;10115;50.906;4.438;2022-08-20T08:56:27;21.40;99.90
19906;DHT22;10115;50.906;4.438;2022-08-20T08:59:06;21.40;99.90
19906;DHT22;10115;50.906;4.438;2022-08-20T09:01:40;21.30;99.90
19906;DHT22;10115;50.906;4.438;2022-08-20T09:04:08;21.50;99.90
19906;DHT22;10115;50.906;4.438;2022-08-20T09:06:35;21.60;99.90
19906;DHT22;10115;50.906;4.438;2022-08-20T09:09:03;21.50;99.90
19906;DHT22;10115;50.906;4.438;2022-08-20T09:11:32;21.40;99.90
19906;DHT22;10115;50.906;4.438;2022-08-20T09:14:08;21.50;99.90
19906;DHT22;10115;50.906;4.438;2022-08-20T09:16:34;21.90;99.90
19906;DHT22;10115;50.906;4.438;2022-08-20T09:18:59;22.10;99.90
19906;DHT22;10115;50.906;4.438;2022-08-20T09:21:25;21.90;99.90
19906;DHT22;10115;50.906;4.438;2022-08-20T09:23:51;22.00;99.90
19906;DHT22;10115;50.906;4.438;2022-08-20T09:26:16;22.30;99.90
19906;DHT22;10115;50.906;4.438;2022-08-20T09:28:42;22.50;99.90
19906;DHT22;10115;50.906;4.438;2022-08-20T09:31:08;22.60;99.90
19906;DHT22;10115;50.906;4.438;2022-08-20T09:33:33;22.60;99.90
19906;DHT22;10115;50.906;4.438;2022-08-20T09:35:59;22.50;99.90
19906;DHT22;10115;50.906;4.438;2022-08-20T09:38:25;22.80;99.90
19906;DHT22;10115;50.906;4.438;2022-08-20T09:40:51;22.60;99.90
19906;DHT22;10115;50.906;4.438;2022-08-20T09:43:16;22.40;99.90
19906;DHT22;10115;50.906;4.438;2022-08-20T09:45:42;22.00;99.90
19906;DHT22;10115;50.906;4.438;2022-08-20T09:48:08;21.90;99.90
19906;DHT22;10115;50.906;4.438;2022-08-20T09:50:34;21.90;99.90
19906;DHT22;10115;50.906;4.438;2022-08-20T09:53:02;21.40;99.90
19906;DHT22;10115;50.906;4.438;2022-08-20T09:55:37;21.20;99.90
19906;DHT22;10115;50.906;4.438;2022-08-20T09:58:50;21.20;99.90
19906;DHT22;10115;50.906;4.438;2022-08-20T10:00:55;21.40;99.90
19906;DHT22;10115;50.906;4.438;2022-08-20T10:03:21;21.80;99.90
19906;DHT22;10115;50.906;4.438;2022-08-20T10:05:47;21.90;99.90
19906;DHT22;10115;50.906;4.438;2022-08-20T10:08:13;21.80;99.90
19906;DHT22;10115;50.906;4.438;2022-08-20T10:10:39;21.60;99.90
19906;DHT22;10115;50.906;4.438;2022-08-20T10:13:04;21.50;99.90
19906;DHT22;10115;50.906;4.438;2022-08-20T10:15:30;21.50;99.90
19906;DHT22;10115;50.906;4.438;2022-08-20T10:17:56;21.70;99.90
19906;DHT22;10115;50.906;4.438;2022-08-20T10:20:23;21.90;99.90
19906;DHT22;10115;50.906;4.438;2022-08-20T10:22:49;22.30;99.90
19906;DHT22;10115;50.906;4.438;2022-08-20T10:25:15;22.50;99.90
19906;DHT22;10115;50.906;4.438;2022-08-20T10:27:42;22.70;99.90
19906;DHT22;10115;50.906;4.438;2022-08-20T10:30:08;22.60;99.90
19906;DHT22;10115;50.906;4.438;2022-08-20T10:32:34;22.50;99.90
19906;DHT22;10115;50.906;4.438;2022-08-20T10:35:00;22.80;99.90
19906;DHT22;10115;50.906;4.438;2022-08-20T10:37:26;23.00;99.90
19906;DHT22;10115;50.906;4.438;2022-08-20T10:39:52;23.30;99.90
19906;DHT22;10115;50.906;4.438;2022-08-20T10:42:18;23.10;99.90
19906;DHT22;10115;50.906;4.438;2022-08-20T10:44:44;22.60;99.90
19906;DHT22;10115;50.906;4.438;2022-08-20T10:47:25;23.00;99.90
19906;DHT22;10115;50.906;4.438;2022-08-20T10:49:53;23.10;99.90
19906;DHT22;10115;50.906;4.438;2022-08-20T10:52:20;23.00;99.90
19906;DHT22;10115;50.906;4.438;2022-08-20T10:54:46;22.70;99.90
19906;DHT22;10115;50.906;4.438;2022-08-20T10:57:15;22.90;99.90
19906;DHT22;10115;50.906;4.438;2022-08-20T10:59:42;23.20;99.90
19906;DHT22;10115;50.906;4.438;2022-08-20T11:02:09;22.90;99.90
19906;DHT22;10115;50.906;4.438;2022-08-20T11:04:35;22.50;99.90
19906;DHT22;10115;50.906;4.438;2022-08-20T11:09:40;22.90;99.90
19906;DHT22;10115;50.906;4.438;2022-08-20T11:12:06;23.10;99.90
19906;DHT22;10115;50.906;4.438;2022-08-20T11:14:32;23.60;99.90
19906;DHT22;10115;50.906;4.438;2022-08-20T11:16:59;23.90;99.90
19906;DHT22;10115;50.906;4.438;2022-08-20T11:19:25;23.80;99.90
19906;DHT22;10115;50.906;4.438;2022-08-20T11:21:50;23.50;99.90
19906;DHT22;10115;50.906;4.438;2022-08-20T11:24:16;23.50;99.90
19906;DHT22;10115;50.906;4.438;2022-08-20T11:26:45;23.50;99.90
19906;DHT22;10115;50.906;4.438;2022-08-20T11:29:12;23.70;99.90
19906;DHT22;10115;50.906;4.438;2022-08-20T11:31:37;23.70;99.90
19906;DHT22;10115;50.906;4.438;2022-08-20T11:34:03;24.00;99.90
19906;DHT22;10115;50.906;4.438;2022-08-20T11:36:29;24.00;99.90
19906;DHT22;10115;50.906;4.438;2022-08-20T11:38:55;24.00;99.90
19906;DHT22;10115;50.906;4.438;2022-08-20T11:41:21;23.80;99.90
19906;DHT22;10115;50.906;4.438;2022-08-20T11:43:47;24.00;99.90
19906;DHT22;10115;50.906;4.438;2022-08-20T11:46:13;24.10;99.90
19906;DHT22;10115;50.906;4.438;2022-08-20T11:48:38;23.80;99.90
19906;DHT22;10115;50.906;4.438;2022-08-20T11:51:04;24.00;99.90
19906;DHT22;10115;50.906;4.438;2022-08-20T11:53:30;23.70;99.90
19906;DHT22;10115;50.906;4.438;2022-08-20T11:55:56;23.80;99.90
19906;DHT22;10115;50.906;4.438;2022-08-20T11:58:22;24.10;99.90
19906;DHT22;10115;50.906;4.438;2022-08-20T12:00:47;23.60;99.90
19906;DHT22;10115;50.906;4.438;2022-08-20T12:03:14;23.30;99.90
19906;DHT22;10115;50.906;4.438;2022-08-20T12:05:43;23.50;99.90
19906;DHT22;10115;50.906;4.438;2022-08-20T12:08:10;23.60;99.90
19906;DHT22;10115;50.906;4.438;2022-08-20T12:10:37;24.10;99.90
19906;DHT22;10115;50.906;4.438;2022-08-20T12:13:03;23.90;99.90
19906;DHT22;10115;50.906;4.438;2022-08-20T12:15:29;23.50;99.90
19906;DHT22;10115;50.906;4.438;2022-08-20T12:17:55;23.80;99.90
19906;DHT22;10115;50.906;4.438;2022-08-20T12:20:22;24.10;99.90
19906;DHT22;10115;50.906;4.438;2022-08-20T12:22:48;24.40;99.90
19906;DHT22;10115;50.906;4.438;2022-08-20T12:25:14;24.30;99.90
19906;DHT22;10115;50.906;4.438;2022-08-20T12:27:40;23.90;99.90
19906;DHT22;10115;50.906;4.438;2022-08-20T12:30:16;24.00;99.90
19906;DHT22;10115;50.906;4.438;2022-08-20T12:32:42;24.50;99.90
19906;DHT22;10115;50.906;4.438;2022-08-20T12:35:10;24.40;99.90
19906;DHT22;10115;50.906;4.438;2022-08-20T12:37:36;24.80;99.90
19906;DHT22;10115;50.906;4.438;2022-08-20T12:40:04;24.40;99.90
19906;DHT22;10115;50.906;4.438;2022-08-20T12:42:30;24.10;99.90
19906;DHT22;10115;50.906;4.438;2022-08-20T12:44:57;23.90;99.90
19906;DHT22;10115;50.906;4.438;2022-08-20T12:47:26;23.60;99.90
19906;DHT22;10115;50.906;4.438;2022-08-20T12:50:04;23.60;99.90
19906;DHT22;10115;50.906;4.438;2022-08-20T12:52:30;23.40;99.90
19906;DHT22;10115;50.906;4.438;2022-08-20T12:54:56;23.70;99.90
19906;DHT22;10115;50.906;4.438;2022-08-20T12:57:26;24.40;99.90
19906;DHT22;10115;50.906;4.438;2022-08-20T12:59:55;24.10;99.90
19906;DHT22;10115;50.906;4.438;2022-08-20T13:02:21;24.20;99.90
19906;DHT22;10115;50.906;4.438;2022-08-20T13:04:46;24.30;99.90
19906;DHT22;10115;50.906;4.438;2022-08-20T13:07:13;23.90;99.90
19906;DHT22;10115;50.906;4.438;2022-08-20T13:09:39;24.00;99.90
19906;DHT22;10115;50.906;4.438;2022-08-20T13:12:05;24.20;99.90
19906;DHT22;10115;50.906;4.438;2022-08-20T13:14:31;24.70;99.90
19906;DHT22;10115;50.906;4.438;2022-08-20T13:16:58;24.60;99.90
19906;DHT22;10115;50.906;4.438;2022-08-20T13:19:26;24.90;99.90
19906;DHT22;10115;50.906;4.438;2022-08-20T13:21:52;25.40;99.90
19906;DHT22;10115;50.906;4.438;2022-08-20T13:24:17;25.30;99.90
19906;DHT22;10115;50.906;4.438;2022-08-20T13:26:43;24.90;99.90
19906;DHT22;10115;50.906;4.438;2022-08-20T13:29:09;24.50;99.90
19906;DHT22;10115;50.906;4.438;2022-08-20T13:31:35;24.40;99.90
19906;DHT22;10115;50.906;4.438;2022-08-20T13:34:01;25.00;99.90
19906;DHT22;10115;50.906;4.438;2022-08-20T13:36:26;24.90;99.90
19906;DHT22;10115;50.906;4.438;2022-08-20T13:38:52;24.60;99.90
19906;DHT22;10115;50.906;4.438;2022-08-20T13:41:18;24.50;99.90
19906;DHT22;10115;50.906;4.438;2022-08-20T13:43:43;23.70;99.90
19906;DHT22;10115;50.906;4.438;2022-08-20T13:46:09;23.70;99.90
19906;DHT22;10115;50.906;4.438;2022-08-20T13:48:35;24.40;99.90
19906;DHT22;10115;50.906;4.438;2022-08-20T13:51:01;25.10;99.90
19906;DHT22;10115;50.906;4.438;2022-08-20T13:53:27;24.70;99.90
19906;DHT22;10115;50.906;4.438;2022-08-20T13:55:53;24.30;99.90
19906;DHT22;10115;50.906;4.438;2022-08-20T13:58:18;24.10;99.90
19906;DHT22;10115;50.906;4.438;2022-08-20T14:00:46;23.90;99.90
19906;DHT22;10115;50.906;4.438;2022-08-20T14:03:11;24.50;99.90
19906;DHT22;10115;50.906;4.438;2022-08-20T14:05:37;24.10;99.90
19906;DHT22;10115;50.906;4.438;2022-08-20T14:10:38;24.60;99.90
19906;DHT22;10115;50.906;4.438;2022-08-20T14:13:04;25.30;99.90
19906;DHT22;10115;50.906;4.438;2022-08-20T14:15:32;24.70;99.90
19906;DHT22;10115;50.906;4.438;2022-08-20T14:17:58;25.50;99.90
19906;DHT22;10115;50.906;4.438;2022-08-20T14:20:29;25.80;99.90
19906;DHT22;10115;50.906;4.438;2022-08-20T14:22:55;24.80;99.90
19906;DHT22;10115;50.906;4.438;2022-08-20T14:25:22;24.40;99.90
19906;DHT22;10115;50.906;4.438;2022-08-20T14:27:49;24.00;99.90
19906;DHT22;10115;50.906;4.438;2022-08-20T14:30:21;25.70;99.90
19906;DHT22;10115;50.906;4.438;2022-08-20T14:32:47;28.40;99.90
19906;DHT22;10115;50.906;4.438;2022-08-20T14:35:13;30.40;99.90
19906;DHT22;10115;50.906;4.438;2022-08-20T14:37:46;27.10;99.90
19906;DHT22;10115;50.906;4.438;2022-08-20T14:40:15;26.30;99.90
19906;DHT22;10115;50.906;4.438;2022-08-20T14:42:42;25.50;99.90
19906;DHT22;10115;50.906;4.438;2022-08-20T14:45:09;25.70;99.90
19906;DHT22;10115;50.906;4.438;2022-08-20T14:47:38;26.00;99.90
19906;DHT22;10115;50.906;4.438;2022-08-20T14:50:17;24.70;99.90
19906;DHT22;10115;50.906;4.438;2022-08-20T14:52:44;25.10;99.90
19906;DHT22;10115;50.906;4.438;2022-08-20T14:55:14;25.60;99.90
19906;DHT22;10115;50.906;4.438;2022-08-20T14:57:41;26.80;99.90
19906;DHT22;10115;50.906;4.438;2022-08-20T15:00:10;28.60;99.90
19906;DHT22;10115;50.906;4.438;2022-08-20T15:02:37;27.70;99.90
19906;DHT22;10115;50.906;4.438;2022-08-20T15:05:04;27.20;99.90
19906;DHT22;10115;50.906;4.438;2022-08-20T15:07:33;27.10;99.90
19906;DHT22;10115;50.906;4.438;2022-08-20T15:10:00;27.90;99.90
19906;DHT22;10115;50.906;4.438;2022-08-20T15:12:27;28.80;99.90
19906;DHT22;10115;50.906;4.438;2022-08-20T15:14:53;27.80;99.90
19906;DHT22;10115;50.906;4.438;2022-08-20T15:17:28;27.00;99.90
19906;DHT22;10115;50.906;4.438;2022-08-20T15:19:54;25.90;99.90
19906;DHT22;10115;50.906;4.438;2022-08-20T15:22:21;25.10;99.90
19906;DHT22;10115;50.906;4.438;2022-08-20T15:24:47;24.40;99.90
19906;DHT22;10115;50.906;4.438;2022-08-20T15:27:18;25.00;99.90
19906;DHT22;10115;50.906;4.438;2022-08-20T15:29:44;25.00;99.90
19906;DHT22;10115;50.906;4.438;2022-08-20T15:32:11;24.50;99.90
19906;DHT22;10115;50.906;4.438;2022-08-20T15:34:37;24.10;99.90
19906;DHT22;10115;50.906;4.438;2022-08-20T15:37:21;24.10;99.90
19906;DHT22;10115;50.906;4.438;2022-08-20T15:39:48;24.10;99.90
19906;DHT22;10115;50.906;4.438;2022-08-20T15:42:14;24.10;99.90
19906;DHT22;10115;50.906;4.438;2022-08-20T15:44:41;23.80;99.90
19906;DHT22;10115;50.906;4.438;2022-08-20T15:47:30;24.30;99.90
19906;DHT22;10115;50.906;4.438;2022-08-20T15:50:07;25.70;99.90
19906;DHT22;10115;50.906;4.438;2022-08-20T15:52:43;24.50;99.90